Time;durP1;ratioP1;P1;durP2;ratioP2;P2;SDS_P1;SDS_P2;PMS_P1;PMS_P2;Temp;Humidity;BMP_temperature;BMP_pressure;BME280_temperature;BME280_humidity;BME280_pressure;Samples;Min_cycle;Max_cycle;Signal;HPM_P1;HPM_P2
2022/11/20 00:01:51;;;;;;;;;;;;;;;10.32;81.54;100743.25;7385870;19;19923;-86
2022/11/20 00:04:18;;;;;;;;;;;;;;;10.28;81.71;100739.31;7382944;19;19914;-85
2022/11/20 00:06:46;;;;;;;;;;;;;;;10.27;82.26;100741.09;7380636;19;19944;-85
2022/11/20 00:09:14;;;;;;;;;;;;;;;10.25;82.26;100743.06;7380577;19;19955;-86
2022/11/20 00:11:41;;;;;;;;;;;;;;;10.24;82.07;100744.03;7379290;19;19923;-86
2022/11/20 00:14:09;;;;;;;;;;;;;;;10.23;81.71;100745.03;7379180;19;19922;-85
2022/11/20 00:16:36;;;;;;;;;;;;;;;10.25;82.29;100744.88;7383564;19;19931;-86
2022/11/20 00:19:06;;;;;;;;;;;;;;;10.27;82.16;100737.63;7382758;19;20294;-84
2022/11/20 00:21:32;;;;;;;;;;;;;;;10.28;81.54;100736.66;7385071;19;19910;-86
2022/11/20 00:23:59;;;;;;;;;;;;;;;10.30;81.22;100729.47;7378387;19;19919;-85
2022/11/20 00:26:30;;;;;;;;;;;;;;;10.31;81.45;100725.84;7383281;19;19927;-86
2022/11/20 00:28:57;;;;;;;;;;;;;;;10.34;81.87;100722.91;7384649;19;19974;-85
2022/11/20 00:31:25;;;;;;;;;;;;;;;10.32;80.98;100722.22;7385795;19;19923;-86
2022/11/20 00:33:52;;;;;;;;;;;;;;;10.31;80.48;100723.19;7387335;19;19923;-85
2022/11/20 00:36:24;;;;;;;;;;;;;;;10.32;81.00;100716.97;7385671;19;20207;-85
2022/11/20 00:38:55;;;;;;;;;;;;;;;10.34;80.96;100701.88;7384249;19;20257;-86
2022/11/20 00:41:23;;;;;;;;;;;;;;;10.34;80.33;100706.31;7386456;19;19918;-86
2022/11/20 00:43:51;;;;;;;;;;;;;;;10.33;80.07;100704.66;7384930;19;19933;-85
2022/11/20 00:46:19;;;;;;;;;;;;;;;10.31;79.61;100696.91;7388058;19;19923;-84
2022/11/20 00:48:46;;;;;;;;;;;;;;;10.33;80.19;100694.13;7396736;19;19915;-85
2022/11/20 00:51:14;;;;;;;;;;;;;;;10.34;79.34;100696.63;7397083;19;19925;-86
2022/11/20 00:53:42;;;;;;;;;;;;;;;10.35;79.02;100693.00;7386904;19;19921;-85
2022/11/20 00:56:11;;;;;;;;;;;;;;;10.37;78.38;100690.19;7388142;19;20003;-85
2022/11/20 00:58:47;;;;;;;;;;;;;;;10.37;78.90;100680.50;7390273;19;19922;-85
2022/11/20 01:01:16;;;;;;;;;;;;;;;10.39;78.72;100683.00;7388811;19;19978;-86
2022/11/20 01:03:50;;;;;;;;;;;;;;;10.38;78.29;100679.53;7389309;19;19937;-86
2022/11/20 01:06:27;;;;;;;;;;;;;;;10.38;78.31;100678.72;7383153;19;19915;-85
2022/11/20 01:08:56;;;;;;;;;;;;;;;10.36;77.25;100678.06;7378939;19;19922;-87
2022/11/20 01:11:24;;;;;;;;;;;;;;;10.39;77.97;100681.19;7383787;19;19923;-84
2022/11/20 01:13:52;;;;;;;;;;;;;;;10.39;77.98;100673.31;7381268;19;19929;-88
2022/11/20 01:16:20;;;;;;;;;;;;;;;10.40;77.43;100667.06;7383896;19;19919;-86
2022/11/20 01:18:50;;;;;;;;;;;;;;;10.39;76.42;100662.78;7388765;19;19973;-86
2022/11/20 01:21:18;;;;;;;;;;;;;;;10.40;76.58;100667.06;7386646;19;19944;-85
2022/11/20 01:23:46;;;;;;;;;;;;;;;10.41;76.26;100666.09;7386265;19;19929;-85
2022/11/20 01:26:14;;;;;;;;;;;;;;;10.41;75.75;100657.38;7388830;19;20311;-86
2022/11/20 01:28:41;;;;;;;;;;;;;;;10.42;75.61;100659.84;7387562;19;19927;-84
2022/11/20 01:31:12;;;;;;;;;;;;;;;10.44;75.95;100662.31;7385873;19;19944;-85
2022/11/20 01:33:40;;;;;;;;;;;;;;;10.44;75.11;100654.41;7387499;19;19961;-86
2022/11/20 01:36:08;;;;;;;;;;;;;;;10.44;74.71;100652.63;7389989;19;19923;-85
2022/11/20 01:38:35;;;;;;;;;;;;;;;10.43;74.94;100640.44;7386432;19;19927;-86
2022/11/20 01:41:02;;;;;;;;;;;;;;;10.45;74.64;100637.66;7389102;19;20549;-86
2022/11/20 01:43:31;;;;;;;;;;;;;;;10.45;74.44;100640.31;7388468;19;19915;-85
2022/11/20 01:46:03;;;;;;;;;;;;;;;10.44;74.67;100636.84;7386331;19;20309;-85
2022/11/20 01:48:50;;;;;;;;;;;;;;;10.46;74.31;100628.81;7386001;19;19986;-85
2022/11/20 01:51:36;;;;;;;;;;;;;;;10.45;74.43;100627.97;7387432;19;19919;-85
2022/11/20 01:54:05;;;;;;;;;;;;;;;10.47;74.55;100618.09;7395508;19;19922;-86
2022/11/20 01:56:36;;;;;;;;;;;;;;;10.47;73.90;100615.47;7402429;19;19922;-86
2022/11/20 01:59:05;;;;;;;;;;;;;;;10.46;73.60;100605.97;7385690;19;19919;-86
2022/11/20 02:01:34;;;;;;;;;;;;;;;10.47;73.62;100609.38;7387824;19;19928;-84
2022/11/20 02:04:02;;;;;;;;;;;;;;;10.50;74.67;100594.13;7381400;19;20547;-84
2022/11/20 02:06:35;;;;;;;;;;;;;;;10.53;73.71;100595.59;7381812;19;20483;-86
2022/11/20 02:09:02;;;;;;;;;;;;;;;10.54;72.90;100600.72;7382022;19;19926;-85
2022/11/20 02:11:30;;;;;;;;;;;;;;;10.55;72.94;100593.66;7386336;19;19922;-85
2022/11/20 02:13:57;;;;;;;;;;;;;;;10.56;72.99;100584.78;7382771;19;19974;-86
2022/11/20 02:16:28;;;;;;;;;;;;;;;10.57;72.84;100586.41;7389966;19;20281;-86
2022/11/20 02:19:01;;;;;;;;;;;;;;;10.54;73.17;100582.31;7384556;19;19923;-86
2022/11/20 02:21:31;;;;;;;;;;;;;;;10.57;73.25;100587.25;7384371;19;20520;-87
2022/11/20 02:24:03;;;;;;;;;;;;;;;10.59;73.27;100574.75;7386592;19;19933;-85
2022/11/20 02:26:33;;;;;;;;;;;;;;;10.59;72.97;100571.31;7385444;19;19919;-86
2022/11/20 02:29:01;;;;;;;;;;;;;;;10.61;73.25;100570.19;7385946;19;20336;-85
2022/11/20 02:31:36;;;;;;;;;;;;;;;10.63;72.96;100560.31;7384885;19;19919;-85
2022/11/20 02:34:03;;;;;;;;;;;;;;;10.66;72.60;100567.06;7383461;19;19947;-84
2022/11/20 02:36:31;;;;;;;;;;;;;;;10.67;72.97;100555.53;7386646;19;19919;-85
2022/11/20 02:39:00;;;;;;;;;;;;;;;10.68;73.58;100547.50;7383199;19;19923;-87
2022/11/20 02:41:30;;;;;;;;;;;;;;;10.70;74.98;100550.78;7382324;19;19933;-86
2022/11/20 02:44:00;;;;;;;;;;;;;;;10.70;74.45;100540.28;7384429;19;19918;-85
2022/11/20 02:46:27;;;;;;;;;;;;;;;10.72;73.40;100537.47;7382578;19;19940;-85
2022/11/20 02:48:54;;;;;;;;;;;;;;;10.72;74.18;100535.66;7382027;19;19933;-84
2022/11/20 02:51:21;;;;;;;;;;;;;;;10.71;73.21;100534.03;7380256;19;19926;-86
2022/11/20 02:53:48;;;;;;;;;;;;;;;10.67;72.45;100530.03;7379238;19;19919;-85
2022/11/20 02:56:15;;;;;;;;;;;;;;;10.67;73.74;100516.06;7380243;19;19994;-86
2022/11/20 02:58:42;;;;;;;;;;;;;;;10.66;74.57;100517.06;7382559;19;20237;-84
2022/11/20 03:01:09;;;;;;;;;;;;;;;10.67;75.68;100519.53;7381962;19;19919;-85
2022/11/20 03:03:36;;;;;;;;;;;;;;;10.70;74.25;100523.66;7384896;19;19983;-85
2022/11/20 03:06:06;;;;;;;;;;;;;;;10.72;74.81;100511.97;7381902;19;19918;-84
2022/11/20 03:08:33;;;;;;;;;;;;;;;10.74;73.35;100509.19;7383223;19;19918;-86
2022/11/20 03:14:18;;;;;;;;;;;;;;;10.79;72.71;100508.69;7384414;19;19928;-86
2022/11/20 03:16:45;;;;;;;;;;;;;;;10.77;71.21;100500.97;7381433;19;19926;-85
2022/11/20 03:19:12;;;;;;;;;;;;;;;10.80;71.52;100499.81;7379424;19;19914;-85
2022/11/20 03:21:39;;;;;;;;;;;;;;;10.81;71.10;100493.59;7378684;19;20470;-85
2022/11/20 03:24:07;;;;;;;;;;;;;;;10.80;70.55;100499.81;7377714;19;19974;-85
2022/11/20 03:26:33;;;;;;;;;;;;;;;10.81;70.97;100497.03;7377247;19;20241;-85
2022/11/20 03:29:04;;;;;;;;;;;;;;;10.81;71.42;100494.41;7379573;19;20523;-85
2022/11/20 03:31:32;;;;;;;;;;;;;;;10.80;71.47;100482.22;7377664;19;19923;-86
2022/11/20 03:34:02;;;;;;;;;;;;;;;10.76;71.35;100480.91;7378748;19;19933;-85
2022/11/20 03:36:30;;;;;;;;;;;;;;;10.76;71.85;100480.09;7382588;19;19915;-85
2022/11/20 03:38:57;;;;;;;;;;;;;;;10.77;72.36;100481.75;7378686;19;19918;-85
2022/11/20 03:41:25;;;;;;;;;;;;;;;10.79;73.10;100472.69;7381097;19;20160;-85
2022/11/20 03:43:53;;;;;;;;;;;;;;;10.81;73.23;100469.91;7382380;19;19911;-84
2022/11/20 03:46:20;;;;;;;;;;;;;;;10.81;73.87;100475.97;7381410;19;19953;-85
2022/11/20 03:48:47;;;;;;;;;;;;;;;10.80;74.58;100463.81;7384470;19;19922;-85
2022/11/20 03:51:22;;;;;;;;;;;;;;;10.81;75.43;100467.25;7380987;19;19919;-85
2022/11/20 03:53:49;;;;;;;;;;;;;;;10.78;76.62;100459.69;7380256;19;19926;-85
2022/11/20 03:56:17;;;;;;;;;;;;;;;10.76;77.83;100449.34;7379453;19;19951;-85
2022/11/20 03:58:45;;;;;;;;;;;;;;;10.75;79.38;100452.94;7378938;19;19919;-86
2022/11/20 04:01:16;;;;;;;;;;;;;;;10.73;80.24;100455.72;7379780;19;19919;-85
2022/11/20 04:03:43;;;;;;;;;;;;;;;10.72;81.16;100448.81;7380471;19;19922;-85
2022/11/20 04:06:17;;;;;;;;;;;;;;;10.68;82.07;100436.97;7377433;19;19919;-85
2022/11/20 04:08:44;;;;;;;;;;;;;;;10.66;82.76;100431.06;7374823;19;19961;-84
2022/11/20 04:11:20;;;;;;;;;;;;;;;10.64;84.31;100422.50;7377400;19;19918;-85
2022/11/20 04:13:48;;;;;;;;;;;;;;;10.62;84.59;100427.09;7376761;19;19929;-86
2022/11/20 04:16:18;;;;;;;;;;;;;;;10.59;85.40;100431.88;7376122;19;19929;-86
2022/11/20 04:18:45;;;;;;;;;;;;;;;10.58;86.33;100424.97;7379756;19;19921;-84
2022/11/20 04:21:12;;;;;;;;;;;;;;;10.56;86.62;100421.69;7377942;19;20415;-84
2022/11/20 04:23:39;;;;;;;;;;;;;;;10.53;87.02;100417.56;7377402;19;20286;-87
2022/11/20 04:26:07;;;;;;;;;;;;;;;10.53;87.63;100416.75;7378775;19;19926;-84
2022/11/20 04:28:34;;;;;;;;;;;;;;;10.50;88.38;100419.69;7375253;19;19919;-86
2022/11/20 04:31:04;;;;;;;;;;;;;;;10.47;89.02;100406.84;7378710;19;19957;-85
2022/11/20 04:33:31;;;;;;;;;;;;;;;10.47;89.63;100409.50;7377420;19;19926;-86
2022/11/20 04:36:07;;;;;;;;;;;;;;;10.45;90.35;100393.91;7381620;19;19919;-87
2022/11/20 04:38:34;;;;;;;;;;;;;;;10.45;90.52;100398.31;7380581;19;19923;-87
2022/11/20 04:41:02;;;;;;;;;;;;;;;10.43;91.61;100398.47;7381557;19;19918;-84
2022/11/20 04:43:29;;;;;;;;;;;;;;;10.41;91.41;100403.09;7379253;19;19911;-85
2022/11/20 04:45:56;;;;;;;;;;;;;;;10.40;91.25;100398.81;7379649;19;19939;-86
2022/11/20 04:48:24;;;;;;;;;;;;;;;10.40;91.48;100393.56;7376508;19;20266;-86
2022/11/20 04:50:53;;;;;;;;;;;;;;;10.42;91.89;100396.00;7381143;19;19922;-85
2022/11/20 04:53:21;;;;;;;;;;;;;;;10.40;91.83;100390.94;7376280;19;19915;-86
2022/11/20 04:55:48;;;;;;;;;;;;;;;10.42;92.29;100385.47;7380705;19;19914;-85
2022/11/20 04:58:15;;;;;;;;;;;;;;;10.41;92.17;100382.06;7376369;19;19922;-85
2022/11/20 05:01:19;;;;;;;;;;;;;;;10.38;91.92;100376.28;7379683;19;19930;-86
2022/11/20 05:03:46;;;;;;;;;;;;;;;10.37;92.33;100364.94;7377016;19;19931;-85
2022/11/20 05:06:14;;;;;;;;;;;;;;;10.37;92.87;100364.13;7379913;19;19922;-86
2022/11/20 05:08:41;;;;;;;;;;;;;;;10.37;92.78;100341.28;7375394;19;19921;-86
2022/11/20 05:11:09;;;;;;;;;;;;;;;10.36;92.93;100344.91;7379706;19;20405;-85
2022/11/20 05:13:36;;;;;;;;;;;;;;;10.37;93.07;100335.19;7376190;19;19939;-86
2022/11/20 05:16:05;;;;;;;;;;;;;;;10.37;93.21;100335.19;7378782;19;19919;-86
2022/11/20 05:18:32;;;;;;;;;;;;;;;10.37;93.47;100332.56;7386983;19;20057;-86
2022/11/20 05:21:00;;;;;;;;;;;;;;;10.36;93.58;100321.25;7387303;19;20261;-87
2022/11/20 05:23:27;;;;;;;;;;;;;;;10.36;93.61;100323.88;7388434;19;20023;-86
2022/11/20 05:25:55;;;;;;;;;;;;;;;10.36;93.44;100323.88;7389014;19;20571;-85
2022/11/20 05:28:25;;;;;;;;;;;;;;;10.36;93.53;100323.88;7391792;19;19914;-86
2022/11/20 05:30:52;;;;;;;;;;;;;;;10.36;93.88;100310.72;7388313;19;19925;-86
2022/11/20 05:33:20;;;;;;;;;;;;;;;10.39;93.99;100306.94;7386356;19;19923;-84
2022/11/20 05:35:48;;;;;;;;;;;;;;;10.40;94.57;100301.50;7387277;19;21309;-87
2022/11/20 05:38:15;;;;;;;;;;;;;;;10.43;94.57;100305.59;7387127;19;19925;-86
2022/11/20 05:40:42;;;;;;;;;;;;;;;10.42;94.57;100299.53;7385117;19;19919;-86
2022/11/20 05:43:08;;;;;;;;;;;;;;;10.43;94.92;100301.16;7384690;19;19918;-86
2022/11/20 05:45:35;;;;;;;;;;;;;;;10.48;95.18;100298.03;7381721;19;19979;-86
2022/11/20 05:48:02;;;;;;;;;;;;;;;10.50;95.18;100301.34;7382713;19;20574;-86
2022/11/20 05:50:30;;;;;;;;;;;;;;;10.51;95.42;100301.19;7386613;19;20222;-86
2022/11/20 05:52:59;;;;;;;;;;;;;;;10.53;95.81;100286.03;7387639;19;20294;-86
2022/11/20 05:55:27;;;;;;;;;;;;;;;10.55;95.76;100288.50;7385666;19;19922;-87
2022/11/20 05:57:54;;;;;;;;;;;;;;;10.58;96.14;100286.38;7386584;19;19923;-87
2022/11/20 06:00:22;;;;;;;;;;;;;;;10.60;96.41;100292.28;7388853;19;19923;-87
2022/11/20 06:02:53;;;;;;;;;;;;;;;10.60;96.41;100275.69;7389002;19;19919;-86
2022/11/20 06:05:20;;;;;;;;;;;;;;;10.61;96.73;100272.06;7387488;19;19919;-85
2022/11/20 06:07:47;;;;;;;;;;;;;;;10.61;96.88;100277.34;7384753;19;19936;-85
2022/11/20 06:10:14;;;;;;;;;;;;;;;10.60;97.10;100266.00;7391363;19;19937;-86
2022/11/20 06:12:41;;;;;;;;;;;;;;;10.59;97.35;100266.97;7387579;19;20486;-85
2022/11/20 06:15:08;;;;;;;;;;;;;;;10.59;97.25;100255.63;7387003;19;19978;-86
2022/11/20 06:17:35;;;;;;;;;;;;;;;10.58;97.14;100257.44;7387868;19;19923;-86
2022/11/20 06:20:02;;;;;;;;;;;;;;;10.60;97.34;100249.38;7387502;19;19927;-86
2022/11/20 06:22:28;;;;;;;;;;;;;;;10.60;97.46;100236.22;7384236;19;20020;-86
2022/11/20 06:28:16;;;;;;;;;;;;;;;10.62;97.12;100223.72;7388106;19;19918;-85
2022/11/20 06:30:46;;;;;;;;;;;;;;;10.62;97.06;100231.59;7385584;19;19923;-86
2022/11/20 06:33:13;;;;;;;;;;;;;;;10.60;97.15;100223.91;7388624;19;20178;-88
2022/11/20 06:35:40;;;;;;;;;;;;;;;10.59;97.26;100217.00;7386015;19;20362;-85
2022/11/20 06:38:07;;;;;;;;;;;;;;;10.60;97.27;100221.25;7389523;19;20518;-87
2022/11/20 06:43:48;;;;;;;;;;;;;;;10.62;97.73;100216.63;7391550;19;19944;-86
2022/11/20 06:46:19;;;;;;;;;;;;;;;10.64;97.64;100224.38;7385266;19;19931;-86
2022/11/20 06:48:46;;;;;;;;;;;;;;;10.64;97.57;100219.09;7385015;19;19925;-86
2022/11/20 06:51:16;;;;;;;;;;;;;;;10.65;97.76;100221.59;7383455;19;19919;-87
2022/11/20 06:53:43;;;;;;;;;;;;;;;10.69;98.21;100220.25;7382469;19;21948;-87
2022/11/20 06:56:10;;;;;;;;;;;;;;;10.75;98.66;100215.31;7385492;19;20584;-86
2022/11/20 06:58:37;;;;;;;;;;;;;;;10.77;98.55;100218.59;7386095;19;19980;-88
2022/11/20 07:01:12;;;;;;;;;;;;;;;10.79;98.61;100225.31;7387173;19;19931;-88
2022/11/20 07:06:47;;;;;;;;;;;;;;;10.81;99.09;100249.66;7391111;19;20221;-88
2022/11/20 07:09:16;;;;;;;;;;;;;;;10.81;99.56;100252.28;7385072;19;19926;-86
2022/11/20 07:11:43;;;;;;;;;;;;;;;10.81;99.69;100233.06;7386466;19;19934;-86
2022/11/20 07:14:10;;;;;;;;;;;;;;;10.80;100.00;100220.88;7389521;19;19947;-86
2022/11/20 07:16:37;;;;;;;;;;;;;;;10.77;100.00;100208.88;7385935;19;19939;-86
2022/11/20 07:19:06;;;;;;;;;;;;;;;10.78;100.00;100207.06;7385944;19;19982;-86
2022/11/20 07:21:33;;;;;;;;;;;;;;;10.76;100.00;100212.50;7387179;19;20278;-85
2022/11/20 07:24:00;;;;;;;;;;;;;;;10.76;100.00;100212.50;7389975;19;19918;-87
2022/11/20 07:26:27;;;;;;;;;;;;;;;10.82;100.00;100205.75;7387034;19;19962;-85
2022/11/20 07:28:54;;;;;;;;;;;;;;;10.82;100.00;100203.91;7386004;19;19954;-86
2022/11/20 07:31:21;;;;;;;;;;;;;;;10.82;100.00;100222.34;7387033;19;19915;-85
2022/11/20 07:33:50;;;;;;;;;;;;;;;10.83;100.00;100212.63;7387992;19;19919;-86
2022/11/20 07:36:16;;;;;;;;;;;;;;;10.85;100.00;100218.56;7386787;19;20749;-86
2022/11/20 07:38:43;;;;;;;;;;;;;;;10.87;100.00;100220.00;7386145;19;19915;-86
2022/11/20 07:41:10;;;;;;;;;;;;;;;10.88;100.00;100210.31;7385836;19;19923;-86
2022/11/20 07:43:37;;;;;;;;;;;;;;;10.88;100.00;100212.94;7385777;19;19947;-86
2022/11/20 07:46:07;;;;;;;;;;;;;;;10.87;100.00;100206.84;7389244;19;19959;-85
2022/11/20 07:48:34;;;;;;;;;;;;;;;10.87;100.00;100208.69;7384356;19;19919;-86
2022/11/20 07:51:01;;;;;;;;;;;;;;;10.85;100.00;100208.03;7385357;19;20551;-87
2022/11/20 07:53:30;;;;;;;;;;;;;;;10.87;100.00;100212.13;7381971;19;20274;-86
2022/11/20 07:56:01;;;;;;;;;;;;;;;10.87;100.00;100198.16;7384773;19;19925;-86
2022/11/20 07:58:29;;;;;;;;;;;;;;;10.89;100.00;100214.59;7385758;19;19985;-87
2022/11/20 08:00:59;;;;;;;;;;;;;;;10.88;100.00;100219.03;7386591;19;19983;-86
2022/11/20 08:03:26;;;;;;;;;;;;;;;10.90;100.00;100214.44;7386412;19;19927;-87
2022/11/20 08:05:53;;;;;;;;;;;;;;;10.91;100.00;100223.97;7389140;19;19944;-84
2022/11/20 08:08:21;;;;;;;;;;;;;;;10.91;100.00;100223.97;7383798;19;19925;-86
2022/11/20 08:10:50;;;;;;;;;;;;;;;10.92;100.00;100230.06;7386864;19;19915;-86
2022/11/20 08:16:10;;;;;;;;;;;;;;;10.94;100.00;100228.88;7385826;19;19925;-85
2022/11/20 08:18:37;;;;;;;;;;;;;;;10.95;100.00;100238.44;7382581;19;19935;-85
2022/11/20 08:21:04;;;;;;;;;;;;;;;10.96;100.00;100239.25;7381758;19;19919;-85
2022/11/20 08:23:35;;;;;;;;;;;;;;;10.99;100.00;100254.69;7381382;19;19923;-85
2022/11/20 08:26:05;;;;;;;;;;;;;;;10.99;100.00;100254.69;7383853;19;19923;-85
2022/11/20 08:28:32;;;;;;;;;;;;;;;11.01;100.00;100265.88;7384516;19;19973;-87
2022/11/20 08:31:02;;;;;;;;;;;;;;;10.95;99.43;100271.81;7382697;19;20255;-86
2022/11/20 08:33:29;;;;;;;;;;;;;;;10.93;99.64;100271.16;7385631;19;19915;-86
2022/11/20 08:36:00;;;;;;;;;;;;;;;10.91;99.38;100266.09;7385662;19;20258;-87
2022/11/20 08:38:33;;;;;;;;;;;;;;;10.94;99.92;100272.81;7387588;19;19946;-85
2022/11/20 08:47:37;;;;;;;;;;;;;;;10.96;99.23;100278.75;7387580;19;19923;-86
2022/11/20 08:50:04;;;;;;;;;;;;;;;10.95;99.21;100275.28;7385155;19;20345;-85
2022/11/20 08:52:33;;;;;;;;;;;;;;;10.94;99.12;100280.69;7384162;19;19923;-85
2022/11/20 08:55:06;;;;;;;;;;;;;;;10.91;98.95;100288.94;7391026;19;19918;-86
2022/11/20 08:57:33;;;;;;;;;;;;;;;10.95;99.46;100279.72;7394599;19;19919;-86
2022/11/20 09:00:00;;;;;;;;;;;;;;;10.96;99.32;100291.91;7396893;19;20036;-86
2022/11/20 09:02:32;;;;;;;;;;;;;;;10.97;99.11;100290.91;7402368;19;19919;-87
2022/11/20 09:05:06;;;;;;;;;;;;;;;10.95;98.93;100291.06;7397212;19;19922;-86
2022/11/20 09:07:33;;;;;;;;;;;;;;;10.93;98.92;100289.59;7397933;19;20231;-85
2022/11/20 09:10:04;;;;;;;;;;;;;;;10.96;98.78;100291.91;7393664;19;19922;-86
2022/11/20 09:12:56;;;;;;;;;;;;;;;11.00;98.18;100287.94;7398020;19;19933;-86
2022/11/20 09:15:28;;;;;;;;;;;;;;;10.99;97.56;100289.75;7398837;19;19918;-85
2022/11/20 09:17:59;;;;;;;;;;;;;;;11.01;97.67;100284.31;7394116;19;19935;-85
2022/11/20 09:20:42;;;;;;;;;;;;;;;11.04;97.33;100286.59;7397111;19;19923;-85
2022/11/20 09:23:22;;;;;;;;;;;;;;;11.11;97.63;100280.50;7394868;19;20017;-85
2022/11/20 09:25:50;;;;;;;;;;;;;;;11.15;97.63;100275.72;7396482;19;19921;-85
2022/11/20 09:28:31;;;;;;;;;;;;;;;11.17;97.57;100289.53;7394267;19;20246;-85
2022/11/20 09:31:06;;;;;;;;;;;;;;;11.18;97.20;100299.06;7397043;19;19914;-85
2022/11/20 09:33:42;;;;;;;;;;;;;;;11.19;97.15;100305.97;7398309;19;19940;-88
2022/11/20 09:36:23;;;;;;;;;;;;;;;11.12;96.45;100307.66;7398324;19;19915;-87
2022/11/20 09:39:09;;;;;;;;;;;;;;;11.08;96.25;100314.22;7398382;19;19915;-85
2022/11/20 09:41:53;;;;;;;;;;;;;;;11.08;96.53;100308.97;7391716;19;19925;-85
2022/11/20 09:44:36;;;;;;;;;;;;;;;11.08;96.05;100315.03;7396454;19;19911;-85
2022/11/20 09:47:31;;;;;;;;;;;;;;;11.08;96.18;100308.97;7393945;19;19974;-85
2022/11/20 09:50:25;;;;;;;;;;;;;;;11.07;95.94;100315.25;7397071;19;19922;-87
2022/11/20 09:53:01;;;;;;;;;;;;;;;11.07;96.11;100325.78;7400888;19;19926;-85
2022/11/20 09:55:30;;;;;;;;;;;;;;;11.05;95.73;100318.03;7396427;19;19946;-87
2022/11/20 09:58:00;;;;;;;;;;;;;;;11.05;95.81;100306.69;7398176;19;19929;-87
2022/11/20 10:00:41;;;;;;;;;;;;;;;11.02;95.33;100297.28;7397657;19;19922;-86
2022/11/20 10:03:21;;;;;;;;;;;;;;;11.00;95.64;100283.50;7400257;19;19932;-88
2022/11/20 10:06:05;;;;;;;;;;;;;;;11.02;95.61;100284.13;7401341;19;19918;-86
2022/11/20 10:09:00;;;;;;;;;;;;;;;11.00;95.56;100286.13;7401393;19;19911;-88
2022/11/20 10:11:37;;;;;;;;;;;;;;;11.04;95.17;100287.44;7399995;19;19956;-86
2022/11/20 10:14:22;;;;;;;;;;;;;;;11.03;94.74;100295.47;7396319;19;19986;-87
2022/11/20 10:16:56;;;;;;;;;;;;;;;11.03;94.30;100296.31;7405083;19;19955;-88
2022/11/20 10:19:58;;;;;;;;;;;;;;;11.11;94.91;100295.47;7401644;19;19911;-86
2022/11/20 10:22:25;;;;;;;;;;;;;;;11.18;94.74;100288.53;7394636;19;19927;-88
2022/11/20 10:25:13;;;;;;;;;;;;;;;11.26;95.45;100288.50;7391760;19;19931;-85
2022/11/20 10:27:40;;;;;;;;;;;;;;;11.34;95.74;100283.19;7394280;19;19919;-87
2022/11/20 10:30:10;;;;;;;;;;;;;;;11.36;95.42;100281.22;7387631;19;19959;-86
2022/11/20 10:32:42;;;;;;;;;;;;;;;11.38;94.97;100278.41;7391126;19;19982;-86
2022/11/20 10:35:37;;;;;;;;;;;;;;;11.38;94.64;100279.22;7391626;19;19934;-86
2022/11/20 10:38:09;;;;;;;;;;;;;;;11.42;94.31;100277.91;7391695;19;19943;-86
2022/11/20 10:40:40;;;;;;;;;;;;;;;11.48;94.83;100284.28;7388432;19;20343;-87
2022/11/20 10:43:17;;;;;;;;;;;;;;;11.53;95.21;100284.59;7388225;19;19915;-86
2022/11/20 10:45:50;;;;;;;;;;;;;;;11.61;95.33;100283.72;7390832;19;20253;-87
2022/11/20 10:48:21;;;;;;;;;;;;;;;11.68;96.21;100287.34;7388070;19;19952;-87
2022/11/20 10:51:01;;;;;;;;;;;;;;;11.68;95.94;100289.97;7384778;19;20388;-88
2022/11/20 10:53:50;;;;;;;;;;;;;;;11.69;94.91;100283.69;7387147;19;19915;-86
2022/11/20 10:56:39;;;;;;;;;;;;;;;11.70;95.23;100280.06;7386326;19;19930;-86
2022/11/20 10:59:36;;;;;;;;;;;;;;;11.67;94.50;100281.22;7387626;19;19936;-86
2022/11/20 11:02:14;;;;;;;;;;;;;;;11.61;93.04;100286.38;7392253;19;19933;-87
2022/11/20 11:04:58;;;;;;;;;;;;;;;11.65;93.25;100287.66;7394680;19;20313;-86
2022/11/20 11:07:33;;;;;;;;;;;;;;;11.71;92.44;100292.25;7395737;19;19914;-85
2022/11/20 11:10:00;;;;;;;;;;;;;;;11.75;92.48;100288.28;7389231;19;20380;-87
2022/11/20 11:12:28;;;;;;;;;;;;;;;11.77;92.21;100291.59;7385002;19;19921;-87
2022/11/20 11:14:59;;;;;;;;;;;;;;;11.73;91.26;100288.50;7383320;19;20333;-87
2022/11/20 11:20:52;;;;;;;;;;;;;;;11.72;90.38;100283.34;7392793;19;19931;-88
2022/11/20 11:23:29;;;;;;;;;;;;;;;11.76;90.00;100288.13;7387462;19;20275;-88
2022/11/20 11:25:59;;;;;;;;;;;;;;;11.83;90.80;100290.91;7392494;19;19943;-87
2022/11/20 11:28:27;;;;;;;;;;;;;;;11.89;91.29;100291.00;7390860;19;19927;-87
2022/11/20 11:30:55;;;;;;;;;;;;;;;11.93;91.41;100286.22;7389190;19;19994;-87
2022/11/20 11:33:31;;;;;;;;;;;;;;;11.96;91.16;100275.31;7384866;19;19918;-87
2022/11/20 11:36:14;;;;;;;;;;;;;;;12.04;90.98;100285.00;7390301;19;19930;-88
2022/11/20 11:38:43;;;;;;;;;;;;;;;12.05;90.82;100284.81;7384828;19;19950;-86
2022/11/20 11:41:19;;;;;;;;;;;;;;;12.11;91.17;100284.09;7385373;19;19919;-86
2022/11/20 11:46:44;;;;;;;;;;;;;;;12.22;91.19;100272.31;7389767;19;19974;-86
2022/11/20 11:49:13;;;;;;;;;;;;;;;12.26;91.03;100266.50;7385976;19;19918;-87
2022/11/20 11:54:54;;;;;;;;;;;;;;;12.33;88.12;100253.44;7387696;19;19918;-88
2022/11/20 11:57:29;;;;;;;;;;;;;;;12.38;88.08;100251.09;7387593;19;19929;-87
2022/11/20 11:59:56;;;;;;;;;;;;;;;12.43;88.10;100248.72;7383407;19;19922;-86
2022/11/20 12:02:48;;;;;;;;;;;;;;;12.46;88.19;100252.81;7385154;19;20661;-87
2022/11/20 12:05:25;;;;;;;;;;;;;;;12.48;86.25;100253.47;7378758;19;19990;-86
2022/11/20 12:07:59;;;;;;;;;;;;;;;12.51;85.44;100253.09;7382352;19;19923;-85
2022/11/20 12:10:29;;;;;;;;;;;;;;;12.55;85.65;100257.81;7378814;19;20345;-86
2022/11/20 12:13:04;;;;;;;;;;;;;;;12.57;85.64;100255.84;7378690;19;19926;-86
2022/11/20 12:15:33;;;;;;;;;;;;;;;12.58;85.33;100256.66;7376231;19;20003;-86
2022/11/20 12:18:01;;;;;;;;;;;;;;;12.57;84.61;100253.19;7380021;19;19923;-86
2022/11/20 12:20:35;;;;;;;;;;;;;;;12.63;83.22;100251.66;7384690;19;19943;-86
2022/11/20 12:23:07;;;;;;;;;;;;;;;12.64;81.66;100262.06;7383172;19;19930;-85
2022/11/20 12:25:38;;;;;;;;;;;;;;;12.64;80.51;100271.78;7386307;19;19923;-86
2022/11/20 12:28:23;;;;;;;;;;;;;;;12.66;79.26;100262.69;7385310;19;19929;-85
2022/11/20 12:31:10;;;;;;;;;;;;;;;12.74;80.78;100269.72;7384996;19;19991;-87
2022/11/20 12:33:47;;;;;;;;;;;;;;;12.75;79.31;100268.69;7384624;19;20517;-86
2022/11/20 12:36:32;;;;;;;;;;;;;;;12.77;78.42;100269.34;7386673;19;19919;-89
2022/11/20 12:39:05;;;;;;;;;;;;;;;12.80;78.27;100276.88;7390572;19;19927;-86
2022/11/20 12:47:30;;;;;;;;;;;;;;;12.88;76.77;100294.47;7390340;19;19927;-85
2022/11/20 12:50:05;;;;;;;;;;;;;;;12.90;75.56;100280.06;7386772;19;19921;-86
2022/11/20 12:52:39;;;;;;;;;;;;;;;12.90;74.61;100279.28;7390638;19;19922;-85
2022/11/20 12:55:13;;;;;;;;;;;;;;;12.92;74.71;100283.38;7391956;19;19947;-87
2022/11/20 12:57:59;;;;;;;;;;;;;;;12.95;75.66;100282.19;7385843;19;19969;-86
2022/11/20 13:00:26;;;;;;;;;;;;;;;12.93;73.53;100285.00;7390203;19;20026;-85
2022/11/20 13:02:56;;;;;;;;;;;;;;;12.95;73.88;100290.13;7387444;19;19919;-84
2022/11/20 13:05:42;;;;;;;;;;;;;;;12.93;71.39;100292.94;7385968;19;20201;-86
2022/11/20 13:08:15;;;;;;;;;;;;;;;12.93;71.24;100287.66;7380288;19;20457;-86
2022/11/20 13:11:19;;;;;;;;;;;;;;;12.95;71.21;100290.94;7383103;19;19914;-86
2022/11/20 13:13:58;;;;;;;;;;;;;;;12.95;72.24;100288.31;7383702;19;19951;-87
2022/11/20 13:16:33;;;;;;;;;;;;;;;12.97;72.06;100301.31;7385182;19;19930;-85
2022/11/20 13:19:04;;;;;;;;;;;;;;;12.98;72.08;100302.94;7385212;19;19922;-85
2022/11/20 13:21:41;;;;;;;;;;;;;;;12.97;72.40;100304.78;7383689;19;19944;-87
2022/11/20 13:24:25;;;;;;;;;;;;;;;12.98;73.30;100303.78;7384563;19;20029;-86
2022/11/20 13:27:04;;;;;;;;;;;;;;;12.94;72.51;100299.03;7385294;19;20294;-86
2022/11/20 13:29:32;;;;;;;;;;;;;;;12.89;71.66;100299.59;7382526;19;19915;-87
2022/11/20 13:32:04;;;;;;;;;;;;;;;12.84;71.22;100304.59;7385336;19;19915;-85
2022/11/20 13:34:35;;;;;;;;;;;;;;;12.82;72.39;100312.69;7388340;19;20331;-86